Terminal Aerodrome Forecast
Issued by NWS Pueblo, CO

Home | Current Version | Previous Version | Text Only | Print | Product List | Glossary On
Versions: 1 2 3 4 5 6 7 8 9 10 11 12 13 14 15 16 17 18 19
000
FTUS45 KPUB 250522
TAFALS
TAF
KALS 250522Z 2506/2606 VRB04KT P6SM FEW200
     FM251700 18007KT P6SM FEW140 SCT200
     FM252000 22012KT P6SM SCT140 BKN200
     FM260200 18008KT P6SM SCT080 BKN140=

USA.gov is the U.S. government's official web portal to all federal, state and local government web resources and services.